createdAt,value
2022-08-04T00:02:05.341Z,97183.28
2022-08-04T00:04:40.855Z,97178.13
2022-08-04T00:07:12.130Z,97185.59
2022-08-04T00:09:49.725Z,97181.47
2022-08-04T00:12:19.053Z,97178.78
2022-08-04T00:14:50.236Z,97175.47
2022-08-04T00:17:21.942Z,97181.28
2022-08-04T00:19:56.667Z,97178.81
2022-08-04T00:22:29.635Z,97174.69
2022-08-04T00:24:58.778Z,97181.13
2022-08-04T00:27:30.123Z,97180.31
2022-08-04T00:29:59.264Z,97178.66
2022-08-04T00:32:31.122Z,97182.59
2022-08-04T00:35:05.073Z,97188.81
2022-08-04T00:37:34.167Z,97185.06
2022-08-04T00:40:03.684Z,97191.72
2022-08-04T00:42:58.625Z,97192.16
2022-08-04T00:46:17.501Z,97186.75
2022-08-04T00:49:03.222Z,97184.50
2022-08-04T00:51:42.359Z,97181.81
2022-08-04T00:54:13.817Z,97183.03
2022-08-04T00:56:54.053Z,97184.09
2022-08-04T00:59:33.873Z,97187.22
2022-08-04T01:02:07.744Z,97187.41
2022-08-04T01:04:51.539Z,97191.84
2022-08-04T01:07:36.222Z,97182.31
2022-08-04T01:10:07.849Z,97183.16
2022-08-04T01:12:50.349Z,97180.88
2022-08-04T01:15:21.454Z,97178.63
2022-08-04T01:18:01.093Z,97179.44
2022-08-04T01:20:34.552Z,97176.97
2022-08-04T01:23:47.496Z,97180.50
2022-08-04T01:26:42.734Z,97180.69
2022-08-04T01:29:15.851Z,97180.69
2022-08-04T01:32:05.877Z,97181.13
2022-08-04T01:34:37.365Z,97170.59
2022-08-04T01:37:10.425Z,97180.53
2022-08-04T01:39:44.514Z,97179.69
2022-08-04T01:42:31.177Z,97177.44
2022-08-04T01:45:05.302Z,97179.50
2022-08-04T01:47:36.551Z,97168.97
2022-08-04T01:50:07.529Z,97176.81
2022-08-04T01:52:36.757Z,97178.69
2022-08-04T01:55:07.077Z,97175.16
2022-08-04T01:57:38.153Z,97170.44
2022-08-04T02:00:10.737Z,97176.03
2022-08-04T02:02:40.252Z,97177.28
2022-08-04T02:05:11.381Z,97170.03
2022-08-04T02:07:51.856Z,97172.31
2022-08-04T02:10:28.847Z,97177.53
2022-08-04T02:13:03.933Z,97180.81
2022-08-04T02:15:39.951Z,97176.69
2022-08-04T02:18:13.661Z,97168.00
2022-08-04T02:20:45.649Z,97177.34
2022-08-04T02:23:16.442Z,97176.31
2022-08-04T02:25:47.914Z,97182.94
2022-08-04T02:28:24.121Z,97179.19
2022-08-04T02:31:05.860Z,97178.78
2022-08-04T02:33:37.926Z,97176.31
2022-08-04T02:36:08.088Z,97180.22
2022-08-04T02:38:53.294Z,97170.94
2022-08-04T02:41:24.102Z,97172.78
2022-08-04T02:43:53.705Z,97170.31
2022-08-04T02:46:23.771Z,97171.97
2022-08-04T02:48:53.191Z,97166.81
2022-08-04T02:51:25.182Z,97166.41
2022-08-04T02:53:55.581Z,97166.59
2022-08-04T02:56:25.524Z,97157.09
2022-08-04T02:58:57.285Z,97152.56
2022-08-04T03:01:27.443Z,97155.25
2022-08-04T03:04:10.254Z,97150.50
2022-08-04T03:07:00.294Z,97153.59
2022-08-04T03:10:00.546Z,97155.72
2022-08-04T03:12:50.932Z,97155.53
2022-08-04T03:15:48.459Z,97152.41
2022-08-04T03:18:41.061Z,97154.06
2022-08-04T03:21:24.016Z,97161.94
2022-08-04T03:24:26.421Z,97158.22
2022-08-04T03:27:12.595Z,97165.03
2022-08-04T03:30:07.747Z,97162.56
2022-08-04T03:33:03.061Z,97168.78
2022-08-04T03:35:49.760Z,97171.88
2022-08-04T03:38:57.104Z,97168.97
2022-08-04T03:41:55.119Z,97177.03
2022-08-04T03:45:23.416Z,97170.00
2022-08-04T03:48:10.865Z,97168.56
2022-08-04T03:51:34.841Z,97173.94
2022-08-04T03:54:32.998Z,97179.31
2022-08-04T03:57:21.570Z,97183.25
2022-08-04T04:00:05.757Z,97170.03
2022-08-04T04:03:10.224Z,97174.78
2022-08-04T04:06:12.255Z,97171.91
2022-08-04T04:08:58.688Z,97165.91
2022-08-04T04:12:00.652Z,97166.34
2022-08-04T04:15:08.743Z,97163.84
2022-08-04T04:17:57.526Z,97156.63
2022-08-04T04:24:18.618Z,97169.63
2022-08-04T04:26:56.808Z,97163.22
2022-08-04T04:29:34.394Z,97176.03
2022-08-04T04:32:09.682Z,97169.63
2022-08-04T04:34:47.526Z,97179.75
2022-08-04T04:37:22.622Z,97181.41
2022-08-04T04:40:03.346Z,97172.50
2022-08-04T04:42:59.191Z,97180.19
2022-08-04T04:45:31.105Z,97180.19
2022-08-04T04:48:10.565Z,97174.41
2022-08-04T04:50:52.446Z,97183.69
2022-08-04T04:53:26.243Z,97183.91
2022-08-04T04:56:01.378Z,97187.81
2022-08-04T04:58:33.026Z,97177.28
2022-08-04T05:01:21.765Z,97184.72
2022-08-04T05:03:59.194Z,97185.97
2022-08-04T05:06:38.816Z,97185.34
2022-08-04T05:09:17.004Z,97192.75
2022-08-04T05:14:31.470Z,97190.09
2022-08-04T05:15:16.212Z,97203.50
2022-08-04T05:17:48.905Z,97199.16
2022-08-04T05:20:21.564Z,97197.50
2022-08-04T05:22:55.390Z,97194.81
2022-08-04T05:25:26.801Z,97201.03
2022-08-04T05:28:04.263Z,97202.69
2022-08-04T05:30:38.131Z,97204.53
2022-08-04T05:33:11.293Z,97207.84
2022-08-04T05:36:17.015Z,97195.44
2022-08-04T05:38:36.698Z,97202.06
2022-08-04T05:41:06.559Z,97205.97
2022-08-04T05:43:36.880Z,97199.56
2022-08-04T05:46:05.830Z,97197.09
2022-08-04T05:48:35.242Z,97192.97
2022-08-04T05:51:04.543Z,97192.56
2022-08-04T05:53:33.934Z,97201.84
2022-08-04T05:56:03.137Z,97201.22
2022-08-04T05:58:32.511Z,97198.72
2022-08-04T06:01:03.186Z,97200.38
2022-08-04T06:03:32.755Z,97194.63
2022-08-04T06:06:01.571Z,97196.25
2022-08-04T06:08:31.471Z,97191.72
2022-08-04T06:11:03.840Z,97199.78
2022-08-04T06:13:46.635Z,97194.63
2022-08-04T06:16:30.322Z,97198.75
2022-08-04T06:20:02.738Z,97191.31
2022-08-04T06:21:55.570Z,97196.91
2022-08-04T06:24:26.427Z,97193.00
2022-08-04T06:26:55.433Z,97197.13
2022-08-04T06:29:28.333Z,97193.41
2022-08-04T06:32:29.698Z,97194.03
2022-08-04T06:34:54.109Z,97197.53
2022-08-04T06:37:41.216Z,97195.28
2022-08-04T06:40:31.317Z,97193.81
2022-08-04T06:43:03.203Z,97191.34
2022-08-04T06:45:34.344Z,97190.72
2022-08-04T06:48:05.513Z,97194.66
2022-08-04T06:51:31.390Z,97190.72
2022-08-04T06:53:24.799Z,97194.00
2022-08-04T06:55:53.719Z,97197.94
2022-08-04T06:58:23.320Z,97197.50
2022-08-04T07:00:52.106Z,97190.06
2022-08-04T07:03:24.937Z,97196.28
2022-08-04T07:05:54.035Z,97203.72
2022-08-04T07:08:22.977Z,97198.34
2022-08-04T07:10:53.192Z,97196.47
2022-08-04T07:13:22.451Z,97197.94
2022-08-04T07:15:51.718Z,97193.38
2022-08-04T07:18:21.736Z,97189.47
2022-08-04T07:20:50.317Z,97191.13
2022-08-04T07:23:24.604Z,97195.03
2022-08-04T07:26:00.915Z,97196.47
2022-08-04T07:28:42.370Z,97193.41
2022-08-04T07:31:34.379Z,97195.88
2022-08-04T07:34:21.165Z,97197.13
2022-08-04T07:36:55.122Z,97200.44
2022-08-04T07:39:28.854Z,97198.38
2022-08-04T07:42:01.766Z,97202.72
2022-08-04T07:44:32.862Z,97204.16
2022-08-04T07:47:02.303Z,97210.75
2022-08-04T07:49:55.250Z,97208.06
2022-08-04T07:52:21.826Z,97201.66
2022-08-04T07:54:51.425Z,97198.97
2022-08-04T07:57:39.783Z,97197.72
2022-08-04T08:00:10.144Z,97201.66
2022-08-04T08:02:41.686Z,97197.09
2022-08-04T08:05:14.548Z,97193.16
2022-08-04T08:07:50.839Z,97195.00
2022-08-04T08:10:23.370Z,97193.78
2022-08-04T08:12:52.790Z,97186.97
2022-08-04T08:15:21.775Z,97188.81
2022-08-04T08:17:58.409Z,97189.84
2022-08-04T08:20:33.578Z,97183.44
2022-08-04T08:23:03.393Z,97193.16
2022-08-04T08:25:33.257Z,97184.88
2022-08-04T08:28:04.044Z,97183.84
2022-08-04T08:30:33.974Z,97180.94
2022-08-04T08:33:06.202Z,97187.16
2022-08-04T08:35:52.096Z,97185.06
2022-08-04T08:38:28.842Z,97188.56
2022-08-04T08:41:02.163Z,97182.16
2022-08-04T08:44:06.598Z,97180.06
2022-08-04T08:46:50.153Z,97177.19
2022-08-04T08:50:02.630Z,97184.19
2022-08-04T08:53:00.799Z,97188.34
2022-08-04T08:55:38.148Z,97189.78
2022-08-04T08:58:24.821Z,97183.56
2022-08-04T09:00:58.267Z,97185.00
2022-08-04T09:03:55.222Z,97185.84
2022-08-04T09:06:34.769Z,97178.38
2022-08-04T09:09:19.399Z,97175.69
2022-08-04T09:11:51.555Z,97180.66
2022-08-04T09:15:45.776Z,97181.47
2022-08-04T09:18:31.960Z,97176.91
2022-08-04T09:21:04.066Z,97181.91
2022-08-04T09:23:37.559Z,97185.22
2022-08-04T09:26:14.200Z,97178.78
2022-08-04T09:28:56.042Z,97184.19
2022-08-04T09:31:48.951Z,97179.19
2022-08-04T09:34:24.945Z,97174.66
2022-08-04T09:36:58.549Z,97184.97
2022-08-04T09:39:32.298Z,97170.50
2022-08-04T09:42:07.788Z,97181.03
2022-08-04T09:44:52.215Z,97175.44
2022-08-04T09:47:39.413Z,97167.16
2022-08-04T09:50:19.769Z,97177.72
2022-08-04T09:52:55.330Z,97171.28
2022-08-04T09:55:36.044Z,97166.50
2022-08-04T09:58:28.423Z,97161.75
2022-08-04T10:01:02.249Z,97162.34
2022-08-04T10:03:34.647Z,97154.91
2022-08-04T10:06:11.978Z,97143.91
2022-08-04T10:08:57.338Z,97146.41
2022-08-04T10:11:56.038Z,97150.53
2022-08-04T10:14:42.001Z,97148.44
2022-08-04T10:17:20.731Z,97149.06
2022-08-04T10:19:55.525Z,97136.81
2022-08-04T10:22:29.883Z,97141.97
2022-08-04T10:25:38.973Z,97135.56
2022-08-04T10:28:00.361Z,97133.47
2022-08-04T10:30:33.196Z,97143.81
2022-08-04T10:33:07.541Z,97136.34
2022-08-04T10:35:39.662Z,97123.47
2022-08-04T10:38:13.403Z,97128.63
2022-08-04T10:40:46.804Z,97133.56
2022-08-04T10:43:23.489Z,97125.28
2022-08-04T10:45:59.029Z,97132.09
2022-08-04T10:48:36.244Z,97132.53
2022-08-04T10:51:12.588Z,97121.53
2022-08-04T10:53:43.014Z,97120.28
2022-08-04T10:56:17.037Z,97117.16
2022-08-04T10:58:49.076Z,97121.50
2022-08-04T11:01:59.693Z,97119.41
2022-08-04T11:04:26.909Z,97127.03
2022-08-04T11:06:57.602Z,97115.84
2022-08-04T11:09:26.561Z,97111.28
2022-08-04T11:12:01.377Z,97104.63
2022-08-04T11:14:34.845Z,97098.19
2022-08-04T11:17:08.489Z,97105.84
2022-08-04T11:19:46.341Z,97106.44
2022-08-04T11:22:25.105Z,97104.34
2022-08-04T11:24:56.756Z,97099.56
2022-08-04T11:27:30.467Z,97103.69
2022-08-04T11:30:04.868Z,97097.03
2022-08-04T11:32:39.081Z,97099.50
2022-08-04T11:35:11.016Z,97094.50
2022-08-04T11:37:46.758Z,97105.06
2022-08-04T11:40:22.551Z,97099.22
2022-08-04T11:42:54.936Z,97097.13
2022-08-04T11:45:29.405Z,97089.88
2022-08-04T11:48:04.604Z,97092.13
2022-08-04T11:50:38.343Z,97092.72
2022-08-04T11:53:07.590Z,97094.97
2022-08-04T11:56:07.109Z,97092.91
2022-08-04T11:58:27.614Z,97086.22
2022-08-04T12:01:20.000Z,97084.16
2022-08-04T12:04:04.135Z,97081.22
2022-08-04T12:06:40.340Z,97081.59
2022-08-04T12:09:13.581Z,97081.38
2022-08-04T12:11:51.082Z,97080.94
2022-08-04T12:14:35.350Z,97081.31
2022-08-04T12:17:05.890Z,97075.47
2022-08-04T12:19:46.194Z,97085.81
2022-08-04T12:22:31.450Z,97074.56
2022-08-04T12:25:02.754Z,97074.13
2022-08-04T12:27:34.543Z,97072.84
2022-08-04T12:31:00.379Z,97076.38
2022-08-04T12:32:57.576Z,97068.66
2022-08-04T12:35:32.164Z,97069.03
2022-08-04T12:38:07.188Z,97069.41
2022-08-04T12:40:43.385Z,97057.56
2022-08-04T12:43:16.031Z,97064.38
2022-08-04T12:45:48.586Z,97061.22
2022-08-04T12:48:21.294Z,97063.47
2022-08-04T12:50:53.849Z,97055.75
2022-08-04T12:53:32.218Z,97054.47
2022-08-04T12:56:02.568Z,97050.50
2022-08-04T12:58:42.782Z,97050.09
2022-08-04T13:02:06.847Z,97049.84
2022-08-04T13:04:11.892Z,97040.47
2022-08-04T13:06:42.540Z,97038.97
2022-08-04T13:09:17.536Z,97042.28
2022-08-04T13:11:53.331Z,97044.50
2022-08-04T13:14:27.939Z,97043.19
2022-08-04T13:17:00.915Z,97040.28
2022-08-04T13:19:30.803Z,97039.81
2022-08-04T13:22:03.124Z,97042.88
2022-08-04T13:24:41.654Z,97040.78
2022-08-04T13:27:23.836Z,97033.88
2022-08-04T13:30:00.228Z,97023.88
2022-08-04T13:32:33.443Z,97027.78
2022-08-04T13:35:03.861Z,97022.75
2022-08-04T13:37:36.260Z,97025.56
2022-08-04T13:40:06.391Z,97015.94
2022-08-04T13:42:36.120Z,97011.16
2022-08-04T13:45:05.844Z,97010.91
2022-08-04T13:47:37.972Z,97008.81
2022-08-04T13:50:14.027Z,97013.16
2022-08-04T13:52:45.782Z,97005.66
2022-08-04T13:55:23.056Z,97003.34
2022-08-04T13:57:56.579Z,97000.16
2022-08-04T14:00:29.934Z,97004.50
2022-08-04T14:03:23.281Z,96998.41
2022-08-04T14:06:12.381Z,96996.31
2022-08-04T14:08:49.181Z,97005.81
2022-08-04T14:12:09.049Z,97001.81
2022-08-04T14:14:21.434Z,97006.75
2022-08-04T14:17:01.553Z,97002.78
2022-08-04T14:19:36.230Z,96995.84
2022-08-04T14:22:05.385Z,96996.44
2022-08-04T14:24:35.261Z,96995.09
2022-08-04T14:27:03.814Z,96984.88
2022-08-04T14:29:41.766Z,96980.06
2022-08-04T14:32:14.626Z,96975.25
2022-08-04T14:34:47.724Z,96974.78
2022-08-04T14:37:20.340Z,96978.91
2022-08-04T14:40:08.250Z,96965.75
2022-08-04T14:42:42.167Z,96967.97
2022-08-04T14:45:12.092Z,96962.91
2022-08-04T14:47:52.689Z,96961.63
2022-08-04T14:50:22.787Z,96958.44
2022-08-04T14:52:51.202Z,96964.47
2022-08-04T14:55:23.213Z,96956.94
2022-08-04T14:58:35.054Z,96972.69
2022-08-04T15:00:43.138Z,96960.34
2022-08-04T15:03:12.507Z,96955.50
2022-08-04T15:06:01.912Z,96946.94
2022-08-04T15:08:32.072Z,96956.44
2022-08-04T15:11:03.151Z,96955.13
2022-08-04T15:13:33.215Z,96961.72
2022-08-04T15:16:06.667Z,96958.78
2022-08-04T15:18:38.972Z,96951.00
2022-08-04T15:21:08.300Z,96957.81
2022-08-04T15:23:39.495Z,96950.28
2022-08-04T15:26:15.046Z,96945.22
2022-08-04T15:28:47.297Z,96943.09
2022-08-04T15:32:04.025Z,96945.31
2022-08-04T15:34:06.945Z,96951.03
2022-08-04T15:36:45.763Z,96937.28
2022-08-04T15:39:35.776Z,96942.19
2022-08-04T15:42:21.631Z,96937.38
2022-08-04T15:46:37.160Z,96939.00
2022-08-04T15:48:26.239Z,96937.25
2022-08-04T15:51:05.300Z,96931.59
2022-08-04T15:54:27.360Z,96937.34
2022-08-04T15:57:02.833Z,96932.53
2022-08-04T15:59:59.823Z,96928.50
2022-08-04T16:02:39.853Z,96921.78
2022-08-04T16:05:36.991Z,96917.78
2022-08-04T16:08:16.640Z,96922.72
2022-08-04T16:10:48.011Z,96927.06
2022-08-04T16:13:19.501Z,96916.81
2022-08-04T16:15:54.584Z,96909.28
2022-08-04T16:18:44.907Z,96913.38
2022-08-04T16:21:23.269Z,96912.06
2022-08-04T16:24:21.926Z,96917.81
2022-08-04T16:26:53.747Z,96911.09
2022-08-04T16:29:42.387Z,96919.78
2022-08-04T16:32:18.151Z,96914.94
2022-08-04T16:34:55.062Z,96909.84
2022-08-04T16:37:26.653Z,96914.22
2022-08-04T16:40:34.399Z,96905.59
2022-08-04T16:43:06.473Z,96910.78
2022-08-04T16:45:55.254Z,96908.63
2022-08-04T16:48:27.802Z,96904.88
2022-08-04T16:51:05.913Z,96908.38
2022-08-04T16:53:53.738Z,96891.69
2022-08-04T16:56:33.667Z,96901.44
2022-08-04T16:59:10.226Z,96904.97
2022-08-04T17:01:39.711Z,96907.19
2022-08-04T17:04:09.659Z,96896.13
2022-08-04T17:06:39.515Z,96892.31
2022-08-04T17:09:11.649Z,96890.19
2022-08-04T17:11:40.476Z,96895.59
2022-08-04T17:14:09.053Z,96885.34
2022-08-04T17:16:39.509Z,96891.31
2022-08-04T17:19:25.067Z,96890.25
2022-08-04T17:22:05.019Z,96886.22
2022-08-04T17:24:35.226Z,96887.06
2022-08-04T17:27:04.457Z,96879.50
2022-08-04T17:29:53.674Z,96878.44
2022-08-04T17:32:23.476Z,96882.53
2022-08-04T17:34:57.299Z,96876.28
2022-08-04T17:37:38.308Z,96873.34
2022-08-04T17:40:12.131Z,96881.47
2022-08-04T17:42:41.742Z,96881.22
2022-08-04T17:45:49.037Z,96874.97
2022-08-04T17:48:00.851Z,96877.44
2022-08-04T17:50:35.994Z,96877.44
2022-08-04T17:53:11.881Z,96873.66
2022-08-04T17:55:42.673Z,96878.00
2022-08-04T17:58:21.295Z,96873.66
2022-08-04T18:03:52.950Z,96870.69
2022-08-04T18:06:25.510Z,96871.78
2022-08-04T18:08:57.607Z,96867.41
2022-08-04T18:11:29.864Z,96875.78
2022-08-04T18:14:10.890Z,96872.03
2022-08-04T18:16:45.581Z,96879.06
2022-08-04T18:19:15.777Z,96872.84
2022-08-04T18:22:00.213Z,96876.63
2022-08-04T18:24:35.934Z,96874.97
2022-08-04T18:27:22.506Z,96877.44
2022-08-04T18:30:32.635Z,96877.44
2022-08-04T18:33:04.235Z,96873.91
2022-08-04T18:36:31.322Z,96879.31
2022-08-04T18:38:23.653Z,96875.53
2022-08-04T18:40:54.755Z,96875.78
2022-08-04T18:46:15.283Z,96883.91
2022-08-04T18:48:52.220Z,96885.00
2022-08-04T18:51:24.222Z,96890.41
2022-08-04T18:53:58.959Z,96896.06
2022-08-04T18:56:29.537Z,96896.06
2022-08-04T18:59:01.630Z,96897.97
2022-08-04T19:02:17.049Z,96897.13
2022-08-04T19:04:32.394Z,96902.56
2022-08-04T19:07:23.299Z,96895.50
2022-08-04T19:09:54.166Z,96905.50
2022-08-04T19:12:28.192Z,96906.34
2022-08-04T19:15:08.678Z,96903.88
2022-08-04T19:17:49.990Z,96905.75
2022-08-04T19:20:26.798Z,96913.06
2022-08-04T19:24:30.067Z,96919.56
2022-08-04T19:26:02.513Z,96927.69
2022-08-04T19:28:36.076Z,96927.69
2022-08-04T19:31:06.442Z,96928.00
2022-08-04T19:33:59.450Z,96936.13
2022-08-04T19:36:28.020Z,96932.34
2022-08-04T19:38:57.494Z,96936.13
2022-08-04T19:41:29.490Z,96941.53
2022-08-04T19:43:59.827Z,96938.00
2022-08-04T19:46:29.447Z,96943.44
2022-08-04T19:49:00.491Z,96947.22
2022-08-04T19:51:30.509Z,96940.16
2022-08-04T19:56:50.797Z,96945.81
2022-08-04T19:59:19.382Z,96953.94
2022-08-04T20:01:47.856Z,96953.94
2022-08-04T20:04:16.430Z,96960.41
2022-08-04T20:06:45.455Z,96959.59
2022-08-04T20:09:25.320Z,96953.38
2022-08-04T20:11:56.789Z,96959.03
2022-08-04T20:14:31.650Z,96963.63
2022-08-04T20:17:03.359Z,96955.75
2022-08-04T20:19:39.247Z,96954.91
2022-08-04T20:22:50.373Z,96974.69
2022-08-04T20:25:18.348Z,96965.19
2022-08-04T20:27:59.513Z,96967.06
2022-08-04T20:30:31.077Z,96968.13
2022-08-04T20:33:01.087Z,96966.53
2022-08-04T20:35:29.687Z,96972.72
2022-08-04T20:38:01.481Z,96972.19
2022-08-04T20:40:30.675Z,96964.06
2022-08-04T20:43:00.683Z,96962.41
2022-08-04T20:45:57.186Z,96978.91
2022-08-04T20:48:17.705Z,96968.06
2022-08-04T20:50:47.016Z,96961.00
2022-08-04T20:53:16.739Z,96974.78
2022-08-04T20:55:54.998Z,96967.13
2022-08-04T20:58:27.248Z,96972.56
2022-08-04T21:00:57.179Z,96969.25
2022-08-04T21:03:49.210Z,96972.22
2022-08-04T21:06:15.756Z,96967.88
2022-08-04T21:08:56.766Z,96970.00
2022-08-04T21:11:32.893Z,96974.59
2022-08-04T21:14:03.276Z,96970.47
2022-08-04T21:16:55.278Z,96968.59
2022-08-04T21:19:24.541Z,96971.78
2022-08-04T21:21:55.893Z,96986.16
2022-08-04T21:24:26.389Z,96979.09
2022-08-04T21:26:57.067Z,96986.63
2022-08-04T21:29:29.576Z,96976.03
2022-08-04T21:32:04.702Z,96976.03
2022-08-04T21:34:40.636Z,96972.75
2022-08-04T21:37:56.626Z,96970.31
2022-08-04T21:40:30.724Z,96978.66
2022-08-04T21:43:04.795Z,96971.59
2022-08-04T21:45:37.807Z,96967.50
2022-08-04T21:48:07.172Z,96979.97
2022-08-04T21:50:35.666Z,96973.16
2022-08-04T21:53:04.933Z,96979.63
2022-08-04T21:56:05.818Z,96976.59
2022-08-04T21:58:29.038Z,96973.88
2022-08-04T22:01:05.843Z,96977.66
2022-08-04T22:03:51.818Z,96978.97
2022-08-04T22:06:28.444Z,96974.59
2022-08-04T22:08:58.105Z,96975.66
2022-08-04T22:11:48.726Z,96975.09
2022-08-04T22:14:29.115Z,96978.84
2022-08-04T22:17:04.036Z,96975.72
2022-08-04T22:19:50.027Z,96972.59
2022-08-04T22:22:25.523Z,96971.00
2022-08-04T22:24:58.709Z,96974.06
2022-08-04T22:27:42.177Z,96972.91
2022-08-04T22:30:17.619Z,96971.16
2022-08-04T22:32:48.064Z,96961.63
2022-08-04T22:35:36.173Z,96964.00
2022-08-04T22:38:24.164Z,96961.88
2022-08-04T22:40:59.644Z,96961.75
2022-08-04T22:43:32.239Z,96960.13
2022-08-04T22:46:05.272Z,96958.69
2022-08-04T22:48:37.015Z,96959.16
2022-08-04T22:51:07.187Z,96959.38
2022-08-04T22:53:36.706Z,96955.50
2022-08-04T22:56:10.241Z,96961.16
2022-08-04T22:58:45.311Z,96956.47
2022-08-04T23:01:15.784Z,96954.81
2022-08-04T23:03:51.128Z,96960.81
2022-08-04T23:06:25.576Z,96956.94
2022-08-04T23:08:57.417Z,96957.63
2022-08-04T23:11:34.603Z,96954.84
2022-08-04T23:14:05.415Z,96959.44
2022-08-04T23:16:40.787Z,96961.56
2022-08-04T23:19:15.430Z,96960.38
2022-08-04T23:21:47.838Z,96964.72
2022-08-04T23:24:30.165Z,96957.09
2022-08-04T23:26:58.787Z,96961.53
2022-08-04T23:29:27.586Z,96957.56
2022-08-04T23:32:16.005Z,96957.19
2022-08-04T23:34:50.308Z,96957.66
2022-08-04T23:37:18.714Z,96957.66
2022-08-04T23:40:15.597Z,96957.66
2022-08-04T23:42:35.585Z,96956.84
2022-08-04T23:45:04.799Z,96956.84
2022-08-04T23:48:15.516Z,96960.59
2022-08-04T23:50:23.193Z,96960.03
2022-08-04T23:52:52.940Z,96956.72
2022-08-04T23:55:21.506Z,96950.75
2022-08-04T23:58:05.861Z,96950.34
